sensor_id;sensor_type;location;lat;lon;timestamp;pressure;altitude;pressure_sealevel;temperature;humidity
64841;BME280;51307;52.162;7.560;2023-08-31T00:00:42;100235.38;;;13.89;73.14
64841;BME280;51307;52.162;7.560;2023-08-31T00:03:08;100230.66;;;13.69;73.82
64841;BME280;51307;52.162;7.560;2023-08-31T00:05:40;100230.03;;;13.67;73.75
64841;BME280;51307;52.162;7.560;2023-08-31T00:08:06;100228.72;;;13.63;74.42
64841;BME280;51307;52.162;7.560;2023-08-31T00:10:33;100228.63;;;13.71;74.26
64841;BME280;51307;52.162;7.560;2023-08-31T00:12:58;100227.34;;;13.67;74.32
64841;BME280;51307;52.162;7.560;2023-08-31T00:15:24;100226.19;;;13.55;74.71
64841;BME280;51307;52.162;7.560;2023-08-31T00:17:49;100227.91;;;13.62;74.77
64841;BME280;51307;52.162;7.560;2023-08-31T00:20:15;100235.00;;;13.70;74.23
64841;BME280;51307;52.162;7.560;2023-08-31T00:22:41;100238.81;;;13.83;74.06
64841;BME280;51307;52.162;7.560;2023-08-31T00:25:07;100232.22;;;13.85;73.77
64841;BME280;51307;52.162;7.560;2023-08-31T00:27:34;100246.38;;;13.72;74.31
64841;BME280;51307;52.162;7.560;2023-08-31T00:29:59;100238.38;;;13.79;73.50
64841;BME280;51307;52.162;7.560;2023-08-31T00:32:25;100236.13;;;13.83;73.56
64841;BME280;51307;52.162;7.560;2023-08-31T00:34:50;100245.94;;;13.90;73.10
64841;BME280;51307;52.162;7.560;2023-08-31T00:37:16;100240.44;;;13.77;73.90
64841;BME280;51307;52.162;7.560;2023-08-31T00:39:42;100243.34;;;13.75;74.04
64841;BME280;51307;52.162;7.560;2023-08-31T00:42:09;100238.38;;;13.79;74.27
64841;BME280;51307;52.162;7.560;2023-08-31T00:44:35;100234.47;;;13.82;74.18
64841;BME280;51307;52.162;7.560;2023-08-31T00:47:00;100233.66;;;13.81;73.52
64841;BME280;51307;52.162;7.560;2023-08-31T00:49:28;100236.19;;;13.61;73.68
64841;BME280;51307;52.162;7.560;2023-08-31T00:51:55;100234.25;;;13.83;73.54
64841;BME280;51307;52.162;7.560;2023-08-31T00:54:22;100233.66;;;13.81;73.14
64841;BME280;51307;52.162;7.560;2023-08-31T00:56:52;100246.34;;;13.66;73.66
64841;BME280;51307;52.162;7.560;2023-08-31T00:59:18;100248.94;;;13.81;73.36
64841;BME280;51307;52.162;7.560;2023-08-31T01:01:51;100238.06;;;13.89;73.06
64841;BME280;51307;52.162;7.560;2023-08-31T01:04:31;100247.97;;;13.88;73.26
64841;BME280;51307;52.162;7.560;2023-08-31T01:10:07;100238.66;;;13.62;74.65
64841;BME280;51307;52.162;7.560;2023-08-31T01:12:50;100238.91;;;13.68;73.99
64841;BME280;51307;52.162;7.560;2023-08-31T01:15:18;100243.34;;;13.75;73.46
64841;BME280;51307;52.162;7.560;2023-08-31T01:17:50;100243.91;;;13.71;74.21
64841;BME280;51307;52.162;7.560;2023-08-31T01:20:28;100247.94;;;13.60;73.58
64841;BME280;51307;52.162;7.560;2023-08-31T01:23:08;100247.38;;;13.65;73.71
64841;BME280;51307;52.162;7.560;2023-08-31T01:25:36;100249.41;;;13.62;73.78
64841;BME280;51307;52.162;7.560;2023-08-31T01:28:02;100238.53;;;13.71;73.00
64841;BME280;51307;52.162;7.560;2023-08-31T01:30:32;100240.47;;;13.55;73.18
64841;BME280;51307;52.162;7.560;2023-08-31T01:32:58;100251.00;;;13.78;72.41
64841;BME280;51307;52.162;7.560;2023-08-31T01:35:24;100239.47;;;13.63;72.59
64841;BME280;51307;52.162;7.560;2023-08-31T01:38:02;100248.59;;;13.62;72.50
64841;BME280;51307;52.162;7.560;2023-08-31T01:40:33;100239.09;;;13.38;73.28
64841;BME280;51307;52.162;7.560;2023-08-31T01:43:06;100240.78;;;13.45;72.48
64841;BME280;51307;52.162;7.560;2023-08-31T01:45:33;100245.84;;;13.55;71.96
64841;BME280;51307;52.162;7.560;2023-08-31T01:48:01;100240.66;;;13.32;72.05
64841;BME280;51307;52.162;7.560;2023-08-31T01:50:26;100240.28;;;13.35;72.36
64841;BME280;51307;52.162;7.560;2023-08-31T01:52:52;100237.34;;;13.30;72.39
64841;BME280;51307;52.162;7.560;2023-08-31T01:55:22;100245.28;;;13.38;72.27
64841;BME280;51307;52.162;7.560;2023-08-31T01:57:48;100245.34;;;13.23;72.57
64841;BME280;51307;52.162;7.560;2023-08-31T02:00:14;100244.38;;;13.31;72.61
64841;BME280;51307;52.162;7.560;2023-08-31T02:02:40;100229.28;;;13.30;71.86
64841;BME280;51307;52.162;7.560;2023-08-31T02:05:07;100232.66;;;13.17;72.43
64841;BME280;51307;52.162;7.560;2023-08-31T02:07:33;100238.59;;;13.12;72.32
64841;BME280;51307;52.162;7.560;2023-08-31T02:09:58;100236.53;;;13.30;72.21
64841;BME280;51307;52.162;7.560;2023-08-31T02:12:24;100236.53;;;13.30;71.98
64841;BME280;51307;52.162;7.560;2023-08-31T02:14:49;100235.41;;;13.24;72.22
64841;BME280;51307;52.162;7.560;2023-08-31T02:17:15;100239.59;;;13.11;72.62
64841;BME280;51307;52.162;7.560;2023-08-31T02:19:40;100232.13;;;13.07;72.45
64841;BME280;51307;52.162;7.560;2023-08-31T02:22:06;100230.72;;;13.11;72.50
64841;BME280;51307;52.162;7.560;2023-08-31T02:24:31;100235.00;;;13.05;72.25
64841;BME280;51307;52.162;7.560;2023-08-31T02:26:57;100241.50;;;13.33;71.51
64841;BME280;51307;52.162;7.560;2023-08-31T02:29:22;100230.66;;;13.04;72.53
64841;BME280;51307;52.162;7.560;2023-08-31T02:31:48;100227.69;;;12.99;72.75
64841;BME280;51307;52.162;7.560;2023-08-31T02:34:13;100235.75;;;13.14;71.80
64841;BME280;51307;52.162;7.560;2023-08-31T02:36:39;100231.28;;;13.06;72.26
64841;BME280;51307;52.162;7.560;2023-08-31T02:39:05;100232.91;;;13.22;71.73
64841;BME280;51307;52.162;7.560;2023-08-31T02:41:31;100230.53;;;13.12;71.97
64841;BME280;51307;52.162;7.560;2023-08-31T02:43:57;100224.66;;;13.24;71.44
64841;BME280;51307;52.162;7.560;2023-08-31T02:46:22;100230.53;;;13.12;71.98
64841;BME280;51307;52.162;7.560;2023-08-31T02:48:48;100227.38;;;13.09;72.04
64841;BME280;51307;52.162;7.560;2023-08-31T02:51:14;100232.56;;;13.10;72.00
64841;BME280;51307;52.162;7.560;2023-08-31T02:53:39;100235.38;;;13.02;71.86
64841;BME280;51307;52.162;7.560;2023-08-31T02:56:05;100237.94;;;13.10;71.92
64841;BME280;51307;52.162;7.560;2023-08-31T02:58:30;100238.38;;;12.92;72.01
64841;BME280;51307;52.162;7.560;2023-08-31T03:01:17;100244.63;;;13.00;72.13
64841;BME280;51307;52.162;7.560;2023-08-31T03:03:43;100244.00;;;12.98;71.93
64841;BME280;51307;52.162;7.560;2023-08-31T03:06:11;100234.22;;;12.90;72.23
64841;BME280;51307;52.162;7.560;2023-08-31T03:08:37;100232.63;;;12.95;71.94
64841;BME280;51307;52.162;7.560;2023-08-31T03:11:04;100236.50;;;12.93;72.16
64841;BME280;51307;52.162;7.560;2023-08-31T03:13:30;100240.03;;;12.93;72.23
64841;BME280;51307;52.162;7.560;2023-08-31T03:15:56;100246.34;;;12.86;71.95
64841;BME280;51307;52.162;7.560;2023-08-31T03:18:22;100241.72;;;12.79;72.65
64841;BME280;51307;52.162;7.560;2023-08-31T03:20:48;100238.84;;;12.96;71.81
64841;BME280;51307;52.162;7.560;2023-08-31T03:23:13;100237.44;;;13.00;71.66
64841;BME280;51307;52.162;7.560;2023-08-31T03:25:39;100236.63;;;12.85;72.22
64841;BME280;51307;52.162;7.560;2023-08-31T03:28:05;100242.25;;;12.90;72.54
64841;BME280;51307;52.162;7.560;2023-08-31T03:30:30;100242.25;;;12.90;72.35
64841;BME280;51307;52.162;7.560;2023-08-31T03:32:56;100242.44;;;12.52;72.98
64841;BME280;51307;52.162;7.560;2023-08-31T03:35:21;100245.06;;;12.82;72.89
64841;BME280;51307;52.162;7.560;2023-08-31T03:37:52;100252.41;;;12.43;73.48
64841;BME280;51307;52.162;7.560;2023-08-31T03:40:17;100262.56;;;12.77;72.54
64841;BME280;51307;52.162;7.560;2023-08-31T03:42:43;100250.53;;;12.73;72.84
64841;BME280;51307;52.162;7.560;2023-08-31T03:45:08;100259.22;;;12.75;72.74
64841;BME280;51307;52.162;7.560;2023-08-31T03:47:34;100243.72;;;12.56;73.50
64841;BME280;51307;52.162;7.560;2023-08-31T03:49:59;100245.56;;;12.70;73.14
64841;BME280;51307;52.162;7.560;2023-08-31T03:52:25;100242.75;;;12.78;72.48
64841;BME280;51307;52.162;7.560;2023-08-31T03:54:51;100248.97;;;12.79;72.58
64841;BME280;51307;52.162;7.560;2023-08-31T03:57:17;100243.69;;;12.71;72.96
64841;BME280;51307;52.162;7.560;2023-08-31T03:59:43;100249.44;;;12.68;73.49
64841;BME280;51307;52.162;7.560;2023-08-31T04:02:08;100247.59;;;12.68;73.33
64841;BME280;51307;52.162;7.560;2023-08-31T04:04:33;100239.63;;;12.75;73.16
64841;BME280;51307;52.162;7.560;2023-08-31T04:06:59;100246.22;;;12.57;73.18
64841;BME280;51307;52.162;7.560;2023-08-31T04:09:25;100243.19;;;12.82;72.66
64841;BME280;51307;52.162;7.560;2023-08-31T04:11:50;100249.78;;;12.79;72.96
64841;BME280;51307;52.162;7.560;2023-08-31T04:14:16;100254.16;;;12.66;73.33
64841;BME280;51307;52.162;7.560;2023-08-31T04:16:44;100257.25;;;12.48;74.07
64841;BME280;51307;52.162;7.560;2023-08-31T04:19:10;100256.56;;;12.60;74.02
64841;BME280;51307;52.162;7.560;2023-08-31T04:21:35;100244.81;;;12.61;73.76
64841;BME280;51307;52.162;7.560;2023-08-31T04:24:02;100259.41;;;12.74;73.73
64841;BME280;51307;52.162;7.560;2023-08-31T04:26:28;100251.47;;;12.66;73.89
64841;BME280;51307;52.162;7.560;2023-08-31T04:28:54;100254.16;;;12.66;73.80
64841;BME280;51307;52.162;7.560;2023-08-31T04:31:20;100252.16;;;12.53;74.80
64841;BME280;51307;52.162;7.560;2023-08-31T04:33:46;100261.81;;;12.69;74.67
64841;BME280;51307;52.162;7.560;2023-08-31T04:36:12;100264.34;;;12.55;75.24
64841;BME280;51307;52.162;7.560;2023-08-31T04:38:37;100269.13;;;12.75;74.36
64841;BME280;51307;52.162;7.560;2023-08-31T04:41:03;100269.13;;;12.75;74.15
64841;BME280;51307;52.162;7.560;2023-08-31T04:43:29;100262.41;;;12.64;74.20
64841;BME280;51307;52.162;7.560;2023-08-31T04:45:55;100269.25;;;12.52;75.16
64841;BME280;51307;52.162;7.560;2023-08-31T04:48:21;100259.84;;;12.41;75.44
64841;BME280;51307;52.162;7.560;2023-08-31T04:50:47;100266.47;;;12.60;74.74
64841;BME280;51307;52.162;7.560;2023-08-31T04:53:12;100269.88;;;12.69;74.56
64841;BME280;51307;52.162;7.560;2023-08-31T04:55:38;100273.25;;;12.56;74.72
64841;BME280;51307;52.162;7.560;2023-08-31T04:58:03;100277.03;;;12.47;75.71
64841;BME280;51307;52.162;7.560;2023-08-31T05:00:29;100285.06;;;12.61;74.99
64841;BME280;51307;52.162;7.560;2023-08-31T05:02:55;100281.94;;;12.28;75.90
64841;BME280;51307;52.162;7.560;2023-08-31T05:05:21;100282.31;;;12.55;75.30
64841;BME280;51307;52.162;7.560;2023-08-31T05:07:46;100275.94;;;12.56;75.37
64841;BME280;51307;52.162;7.560;2023-08-31T05:10:12;100281.59;;;12.46;75.60
64841;BME280;51307;52.162;7.560;2023-08-31T05:12:37;100280.53;;;12.62;74.98
64841;BME280;51307;52.162;7.560;2023-08-31T05:15:04;100282.41;;;12.47;76.14
64841;BME280;51307;52.162;7.560;2023-08-31T05:17:29;100284.97;;;12.55;75.81
64841;BME280;51307;52.162;7.560;2023-08-31T05:19:56;100289.34;;;12.56;75.84
64841;BME280;51307;52.162;7.560;2023-08-31T05:22:21;100290.91;;;12.65;75.46
64841;BME280;51307;52.162;7.560;2023-08-31T05:24:47;100284.59;;;12.58;75.66
64841;BME280;51307;52.162;7.560;2023-08-31T05:27:13;100287.28;;;12.73;75.19
64841;BME280;51307;52.162;7.560;2023-08-31T05:29:39;100296.38;;;12.72;75.15
64841;BME280;51307;52.162;7.560;2023-08-31T05:32:04;100294.59;;;12.64;75.77
64841;BME280;51307;52.162;7.560;2023-08-31T05:34:30;100291.09;;;12.78;75.28
64841;BME280;51307;52.162;7.560;2023-08-31T05:36:58;100298.47;;;12.76;75.48
64841;BME280;51307;52.162;7.560;2023-08-31T05:39:23;100300.63;;;12.81;75.38
64841;BME280;51307;52.162;7.560;2023-08-31T05:41:49;100300.97;;;12.78;75.73
64841;BME280;51307;52.162;7.560;2023-08-31T05:44:15;100305.81;;;12.68;76.04
64841;BME280;51307;52.162;7.560;2023-08-31T05:46:41;100301.81;;;12.78;75.69
64841;BME280;51307;52.162;7.560;2023-08-31T05:49:06;100310.06;;;12.77;75.84
64841;BME280;51307;52.162;7.560;2023-08-31T05:51:33;100300.72;;;12.58;76.18
64841;BME280;51307;52.162;7.560;2023-08-31T05:53:58;100305.06;;;12.74;75.63
64841;BME280;51307;52.162;7.560;2023-08-31T05:56:24;100312.94;;;12.45;77.04
64841;BME280;51307;52.162;7.560;2023-08-31T05:58:49;100322.81;;;12.75;75.99
64841;BME280;51307;52.162;7.560;2023-08-31T06:01:15;100314.88;;;12.82;75.96
64841;BME280;51307;52.162;7.560;2023-08-31T06:03:41;100323.66;;;12.60;77.12
64841;BME280;51307;52.162;7.560;2023-08-31T06:06:07;100328.84;;;12.62;76.68
64841;BME280;51307;52.162;7.560;2023-08-31T06:08:32;100318.00;;;12.85;75.72
64841;BME280;51307;52.162;7.560;2023-08-31T06:10:58;100329.88;;;12.61;76.57
64841;BME280;51307;52.162;7.560;2023-08-31T06:13:24;100328.19;;;12.75;75.87
64841;BME280;51307;52.162;7.560;2023-08-31T06:15:49;100341.16;;;12.71;76.94
64841;BME280;51307;52.162;7.560;2023-08-31T06:18:15;100340.13;;;12.72;76.86
64841;BME280;51307;52.162;7.560;2023-08-31T06:20:41;100337.66;;;12.71;76.83
64841;BME280;51307;52.162;7.560;2023-08-31T06:23:06;100339.66;;;12.99;76.44
64841;BME280;51307;52.162;7.560;2023-08-31T06:25:32;100340.31;;;12.86;77.19
64841;BME280;51307;52.162;7.560;2023-08-31T06:27:57;100341.06;;;12.94;76.42
64841;BME280;51307;52.162;7.560;2023-08-31T06:30:23;100344.22;;;12.68;77.62
64841;BME280;51307;52.162;7.560;2023-08-31T06:32:49;100339.22;;;12.80;77.13
64841;BME280;51307;52.162;7.560;2023-08-31T06:35:16;100341.34;;;12.70;77.59
64841;BME280;51307;52.162;7.560;2023-08-31T06:37:42;100359.50;;;12.68;78.37
64841;BME280;51307;52.162;7.560;2023-08-31T06:40:08;100355.13;;;12.82;78.44
64841;BME280;51307;52.162;7.560;2023-08-31T06:42:37;100352.06;;;12.85;77.40
64841;BME280;51307;52.162;7.560;2023-08-31T06:45:05;100358.09;;;12.72;77.66
64841;BME280;51307;52.162;7.560;2023-08-31T06:47:31;100351.41;;;12.98;76.60
64841;BME280;51307;52.162;7.560;2023-08-31T06:49:57;100351.91;;;13.16;75.90
64841;BME280;51307;52.162;7.560;2023-08-31T06:52:28;100357.16;;;13.09;76.43
64841;BME280;51307;52.162;7.560;2023-08-31T06:54:54;100356.78;;;13.12;75.74
64841;BME280;51307;52.162;7.560;2023-08-31T06:57:23;100355.41;;;13.17;75.57
64841;BME280;51307;52.162;7.560;2023-08-31T06:59:49;100360.84;;;13.08;76.17
64841;BME280;51307;52.162;7.560;2023-08-31T07:02:15;100366.06;;;12.65;78.32
64841;BME280;51307;52.162;7.560;2023-08-31T07:04:40;100362.44;;;13.03;76.52
64841;BME280;51307;52.162;7.560;2023-08-31T07:07:06;100372.91;;;12.83;77.21
64841;BME280;51307;52.162;7.560;2023-08-31T07:09:34;100368.63;;;13.03;77.15
64841;BME280;51307;52.162;7.560;2023-08-31T07:12:00;100370.50;;;13.18;76.03
64841;BME280;51307;52.162;7.560;2023-08-31T07:14:27;100377.44;;;12.82;77.59
64841;BME280;51307;52.162;7.560;2023-08-31T07:16:52;100375.59;;;12.98;77.02
64841;BME280;51307;52.162;7.560;2023-08-31T07:19:18;100378.91;;;13.15;76.97
64841;BME280;51307;52.162;7.560;2023-08-31T07:21:43;100379.84;;;13.22;76.46
64841;BME280;51307;52.162;7.560;2023-08-31T07:24:09;100379.94;;;12.99;76.84
64841;BME280;51307;52.162;7.560;2023-08-31T07:26:34;100390.31;;;13.02;76.56
64841;BME280;51307;52.162;7.560;2023-08-31T07:29:01;100386.72;;;13.24;76.59
64841;BME280;51307;52.162;7.560;2023-08-31T07:31:30;100385.34;;;13.14;77.56
64841;BME280;51307;52.162;7.560;2023-08-31T07:33:56;100387.53;;;13.25;76.67
64841;BME280;51307;52.162;7.560;2023-08-31T07:36:22;100393.81;;;13.02;77.72
64841;BME280;51307;52.162;7.560;2023-08-31T07:38:48;100404.94;;;12.99;77.51
64841;BME280;51307;52.162;7.560;2023-08-31T07:41:13;100409.38;;;13.07;77.58
64841;BME280;51307;52.162;7.560;2023-08-31T07:43:39;100408.63;;;13.28;76.82
64841;BME280;51307;52.162;7.560;2023-08-31T07:46:04;100398.00;;;13.20;76.53
64841;BME280;51307;52.162;7.560;2023-08-31T07:48:30;100400.22;;;13.31;76.31
64841;BME280;51307;52.162;7.560;2023-08-31T07:50:55;100398.81;;;13.35;75.77
64841;BME280;51307;52.162;7.560;2023-08-31T07:53:20;100394.09;;;13.22;76.26
64841;BME280;51307;52.162;7.560;2023-08-31T07:55:52;100401.59;;;12.97;77.07
64841;BME280;51307;52.162;7.560;2023-08-31T07:58:20;100397.88;;;13.28;76.46
64841;BME280;51307;52.162;7.560;2023-08-31T08:00:45;100406.47;;;13.53;76.35
64841;BME280;51307;52.162;7.560;2023-08-31T08:03:11;100408.53;;;13.73;75.49
64841;BME280;51307;52.162;7.560;2023-08-31T08:05:36;100400.88;;;13.55;74.99
64841;BME280;51307;52.162;7.560;2023-08-31T08:08:02;100402.19;;;13.81;74.11
64841;BME280;51307;52.162;7.560;2023-08-31T08:10:28;100407.34;;;13.97;73.89
64841;BME280;51307;52.162;7.560;2023-08-31T08:12:54;100403.50;;;13.85;74.25
64841;BME280;51307;52.162;7.560;2023-08-31T08:15:21;100409.03;;;13.83;74.19
64841;BME280;51307;52.162;7.560;2023-08-31T08:17:47;100424.09;;;13.77;74.53
64841;BME280;51307;52.162;7.560;2023-08-31T08:20:13;100419.84;;;13.68;73.67
64841;BME280;51307;52.162;7.560;2023-08-31T08:22:39;100427.44;;;13.79;74.13
64841;BME280;51307;52.162;7.560;2023-08-31T08:25:05;100430.34;;;14.21;72.43
64841;BME280;51307;52.162;7.560;2023-08-31T08:27:31;100411.28;;;14.23;72.28
64841;BME280;51307;52.162;7.560;2023-08-31T08:29:58;100427.19;;;14.18;73.28
64841;BME280;51307;52.162;7.560;2023-08-31T08:32:24;100430.06;;;13.94;72.61
64841;BME280;51307;52.162;7.560;2023-08-31T08:34:50;100423.53;;;13.82;72.86
64841;BME280;51307;52.162;7.560;2023-08-31T08:37:16;100430.44;;;13.91;72.84
64841;BME280;51307;52.162;7.560;2023-08-31T08:39:41;100428.47;;;14.00;72.53
64841;BME280;51307;52.162;7.560;2023-08-31T08:42:10;100424.59;;;13.66;73.36
64841;BME280;51307;52.162;7.560;2023-08-31T08:44:36;100435.38;;;13.88;72.86
64841;BME280;51307;52.162;7.560;2023-08-31T08:47:02;100435.94;;;14.05;72.71
64841;BME280;51307;52.162;7.560;2023-08-31T08:49:31;100430.00;;;14.09;72.05
64841;BME280;51307;52.162;7.560;2023-08-31T08:51:58;100423.72;;;14.24;71.02
64841;BME280;51307;52.162;7.560;2023-08-31T08:54:24;100428.91;;;14.25;70.58
64841;BME280;51307;52.162;7.560;2023-08-31T08:56:50;100428.41;;;14.15;70.91
64841;BME280;51307;52.162;7.560;2023-08-31T08:59:16;100431.56;;;14.40;69.79
64841;BME280;51307;52.162;7.560;2023-08-31T09:01:42;100430.94;;;14.23;69.87
64841;BME280;51307;52.162;7.560;2023-08-31T09:04:09;100437.56;;;14.42;69.99
64841;BME280;51307;52.162;7.560;2023-08-31T09:06:35;100443.56;;;14.66;69.67
64841;BME280;51307;52.162;7.560;2023-08-31T09:09:00;100438.75;;;14.33;70.23
64841;BME280;51307;52.162;7.560;2023-08-31T09:11:26;100442.13;;;14.70;69.26
64841;BME280;51307;52.162;7.560;2023-08-31T09:13:52;100436.91;;;14.62;69.34
64841;BME280;51307;52.162;7.560;2023-08-31T09:16:29;100442.06;;;14.63;68.23
64841;BME280;51307;52.162;7.560;2023-08-31T09:18:56;100429.28;;;15.01;67.51
64841;BME280;51307;52.162;7.560;2023-08-31T09:21:22;100442.47;;;14.89;67.24
64841;BME280;51307;52.162;7.560;2023-08-31T09:23:59;100440.06;;;15.01;66.21
64841;BME280;51307;52.162;7.560;2023-08-31T09:26:25;100440.41;;;14.62;66.01
64841;BME280;51307;52.162;7.560;2023-08-31T09:28:51;100435.53;;;14.73;66.04
64841;BME280;51307;52.162;7.560;2023-08-31T09:31:17;100442.38;;;14.75;66.16
64841;BME280;51307;52.162;7.560;2023-08-31T09:33:52;100449.44;;;14.76;66.39
64841;BME280;51307;52.162;7.560;2023-08-31T09:36:20;100438.50;;;15.20;66.17
64841;BME280;51307;52.162;7.560;2023-08-31T09:38:45;100442.91;;;15.27;65.30
64841;BME280;51307;52.162;7.560;2023-08-31T09:41:12;100450.22;;;15.05;65.50
64841;BME280;51307;52.162;7.560;2023-08-31T09:43:37;100441.19;;;15.20;64.58
64841;BME280;51307;52.162;7.560;2023-08-31T09:46:04;100453.97;;;15.11;63.76
64841;BME280;51307;52.162;7.560;2023-08-31T09:48:31;100441.78;;;15.15;64.73
64841;BME280;51307;52.162;7.560;2023-08-31T09:50:57;100443.03;;;15.19;64.77
64841;BME280;51307;52.162;7.560;2023-08-31T09:53:29;100452.75;;;15.13;64.49
64841;BME280;51307;52.162;7.560;2023-08-31T09:55:57;100443.16;;;15.39;64.29
64841;BME280;51307;52.162;7.560;2023-08-31T09:58:23;100453.03;;;15.25;64.84
64841;BME280;51307;52.162;7.560;2023-08-31T10:00:50;100454.69;;;15.26;65.34
64841;BME280;51307;52.162;7.560;2023-08-31T10:03:16;100460.59;;;15.43;65.07
64841;BME280;51307;52.162;7.560;2023-08-31T10:05:49;100459.63;;;15.58;64.14
64841;BME280;51307;52.162;7.560;2023-08-31T10:08:15;100458.75;;;15.44;64.26
64841;BME280;51307;52.162;7.560;2023-08-31T10:10:44;100460.59;;;15.43;63.70
64841;BME280;51307;52.162;7.560;2023-08-31T10:13:11;100453.22;;;15.66;63.74
64841;BME280;51307;52.162;7.560;2023-08-31T10:15:37;100459.19;;;15.54;62.81
64841;BME280;51307;52.162;7.560;2023-08-31T10:18:04;100451.09;;;15.54;62.92
64841;BME280;51307;52.162;7.560;2023-08-31T10:20:31;100456.00;;;15.37;62.17
64841;BME280;51307;52.162;7.560;2023-08-31T10:23:07;100453.66;;;15.69;62.32
64841;BME280;51307;52.162;7.560;2023-08-31T10:31:03;100465.16;;;15.43;64.59
64841;BME280;51307;52.162;7.560;2023-08-31T10:33:31;100456.13;;;15.64;63.47
64841;BME280;51307;52.162;7.560;2023-08-31T10:35:58;100458.69;;;15.86;64.40
64841;BME280;51307;52.162;7.560;2023-08-31T10:38:26;100463.19;;;15.65;63.44
64841;BME280;51307;52.162;7.560;2023-08-31T10:43:55;100459.09;;;15.83;64.50
64841;BME280;51307;52.162;7.560;2023-08-31T10:46:36;100466.94;;;15.64;68.52
64841;BME280;51307;52.162;7.560;2023-08-31T10:51:43;100479.28;;;15.45;69.34
64841;BME280;51307;52.162;7.560;2023-08-31T11:07:31;100465.84;;;15.52;65.69
64841;BME280;51307;52.162;7.560;2023-08-31T11:12:42;100460.19;;;16.08;67.01
64841;BME280;51307;52.162;7.560;2023-08-31T11:15:11;100465.78;;;16.00;66.41
64841;BME280;51307;52.162;7.560;2023-08-31T11:17:37;100463.38;;;16.52;65.17
64841;BME280;51307;52.162;7.560;2023-08-31T11:20:06;100463.38;;;16.59;65.57
64841;BME280;51307;52.162;7.560;2023-08-31T11:22:31;100467.47;;;16.35;62.31
64841;BME280;51307;52.162;7.560;2023-08-31T11:24:58;100463.56;;;16.64;61.00
64841;BME280;51307;52.162;7.560;2023-08-31T11:27:25;100469.56;;;16.79;60.30
64841;BME280;51307;52.162;7.560;2023-08-31T11:29:50;100460.06;;;16.50;59.32
64841;BME280;51307;52.162;7.560;2023-08-31T11:32:16;100462.09;;;16.88;59.06
64841;BME280;51307;52.162;7.560;2023-08-31T11:34:43;100454.63;;;16.84;59.55
64841;BME280;51307;52.162;7.560;2023-08-31T11:37:10;100454.63;;;16.97;59.35
64841;BME280;51307;52.162;7.560;2023-08-31T11:39:37;100459.38;;;17.02;59.98
64841;BME280;51307;52.162;7.560;2023-08-31T11:42:05;100452.75;;;16.91;57.84
64841;BME280;51307;52.162;7.560;2023-08-31T11:44:31;100454.56;;;17.10;57.33
64841;BME280;51307;52.162;7.560;2023-08-31T11:46:57;100455.16;;;17.26;56.88
64841;BME280;51307;52.162;7.560;2023-08-31T11:49:24;100460.56;;;17.19;56.74
64841;BME280;51307;52.162;7.560;2023-08-31T11:51:50;100468.44;;;17.27;56.28
64841;BME280;51307;52.162;7.560;2023-08-31T11:54:17;100467.00;;;17.25;54.66
64841;BME280;51307;52.162;7.560;2023-08-31T11:56:44;100473.28;;;17.12;54.81
64841;BME280;51307;52.162;7.560;2023-08-31T11:59:12;100472.09;;;17.60;55.00
64841;BME280;51307;52.162;7.560;2023-08-31T12:01:45;100474.66;;;17.28;54.90
64841;BME280;51307;52.162;7.560;2023-08-31T12:04:16;100491.50;;;17.43;55.18
64841;BME280;51307;52.162;7.560;2023-08-31T12:06:46;100494.47;;;17.22;54.88
64841;BME280;51307;52.162;7.560;2023-08-31T12:09:15;100503.44;;;17.02;54.37
64841;BME280;51307;52.162;7.560;2023-08-31T12:11:40;100495.31;;;17.16;54.37
64841;BME280;51307;52.162;7.560;2023-08-31T12:14:23;100492.47;;;16.84;55.38
64841;BME280;51307;52.162;7.560;2023-08-31T12:16:50;100497.44;;;16.87;55.26
64841;BME280;51307;52.162;7.560;2023-08-31T12:19:16;100506.16;;;16.82;56.45
64841;BME280;51307;52.162;7.560;2023-08-31T12:21:44;100496.41;;;16.48;56.65
64841;BME280;51307;52.162;7.560;2023-08-31T12:24:10;100505.75;;;16.52;57.55
64841;BME280;51307;52.162;7.560;2023-08-31T12:26:36;100519.38;;;16.23;58.45
64841;BME280;51307;52.162;7.560;2023-08-31T12:29:02;100539.81;;;15.77;62.48
64841;BME280;51307;52.162;7.560;2023-08-31T12:31:31;100534.56;;;14.99;67.44
64841;BME280;51307;52.162;7.560;2023-08-31T12:33:57;100524.72;;;15.20;67.41
64841;BME280;51307;52.162;7.560;2023-08-31T12:36:23;100522.16;;;15.05;69.34
64841;BME280;51307;52.162;7.560;2023-08-31T12:38:49;100533.81;;;14.62;70.64
64841;BME280;51307;52.162;7.560;2023-08-31T12:41:14;100531.94;;;14.62;70.76
64841;BME280;51307;52.162;7.560;2023-08-31T12:43:39;100532.53;;;14.79;68.77
64841;BME280;51307;52.162;7.560;2023-08-31T12:46:05;100523.84;;;14.84;69.04
64841;BME280;51307;52.162;7.560;2023-08-31T12:48:34;100524.16;;;14.96;69.72
64841;BME280;51307;52.162;7.560;2023-08-31T12:51:00;100530.66;;;14.80;68.21
64841;BME280;51307;52.162;7.560;2023-08-31T12:53:25;100524.81;;;15.33;66.90
64841;BME280;51307;52.162;7.560;2023-08-31T12:55:54;100522.25;;;15.53;67.76
64841;BME280;51307;52.162;7.560;2023-08-31T12:58:24;100519.00;;;15.71;69.34
64841;BME280;51307;52.162;7.560;2023-08-31T13:00:53;100520.56;;;15.94;67.96
64841;BME280;51307;52.162;7.560;2023-08-31T13:03:20;100522.13;;;15.68;67.12
64841;BME280;51307;52.162;7.560;2023-08-31T13:05:46;100514.38;;;16.13;66.02
64841;BME280;51307;52.162;7.560;2023-08-31T13:08:14;100514.38;;;16.13;64.92
64841;BME280;51307;52.162;7.560;2023-08-31T13:10:39;100512.94;;;16.11;66.97
64841;BME280;51307;52.162;7.560;2023-08-31T13:13:08;100516.13;;;16.55;65.82
64841;BME280;51307;52.162;7.560;2023-08-31T13:15:36;100514.16;;;16.08;64.88
64841;BME280;51307;52.162;7.560;2023-08-31T13:18:04;100509.91;;;16.54;64.16